sensor_id;sensor_type;location;lat;lon;timestamp;temperature;humidity
36384;DHT22;22418;51.210;6.976;2023-11-21T00:02:01;10.30;99.90
36384;DHT22;22418;51.210;6.976;2023-11-21T00:04:32;10.30;99.90
36384;DHT22;22418;51.210;6.976;2023-11-21T00:07:02;10.30;99.90
36384;DHT22;22418;51.210;6.976;2023-11-21T00:09:33;10.30;99.90
36384;DHT22;22418;51.210;6.976;2023-11-21T00:12:04;10.30;99.90
36384;DHT22;22418;51.210;6.976;2023-11-21T00:14:34;10.20;99.90
36384;DHT22;22418;51.210;6.976;2023-11-21T00:17:06;10.20;99.90
36384;DHT22;22418;51.210;6.976;2023-11-21T00:19:36;10.30;99.90
36384;DHT22;22418;51.210;6.976;2023-11-21T00:22:07;10.30;99.90
36384;DHT22;22418;51.210;6.976;2023-11-21T00:24:37;10.30;99.90
36384;DHT22;22418;51.210;6.976;2023-11-21T00:27:08;10.30;99.90
36384;DHT22;22418;51.210;6.976;2023-11-21T00:29:38;10.30;99.90
36384;DHT22;22418;51.210;6.976;2023-11-21T00:32:09;10.20;99.90
36384;DHT22;22418;51.210;6.976;2023-11-21T00:34:39;10.20;99.90
36384;DHT22;22418;51.210;6.976;2023-11-21T00:37:10;10.30;99.90
36384;DHT22;22418;51.210;6.976;2023-11-21T00:39:41;10.30;99.90
36384;DHT22;22418;51.210;6.976;2023-11-21T00:42:11;10.30;99.90
36384;DHT22;22418;51.210;6.976;2023-11-21T00:44:42;10.30;99.90
36384;DHT22;22418;51.210;6.976;2023-11-21T00:47:12;10.40;99.90
36384;DHT22;22418;51.210;6.976;2023-11-21T00:49:43;10.30;99.90
36384;DHT22;22418;51.210;6.976;2023-11-21T00:52:14;10.50;99.90
36384;DHT22;22418;51.210;6.976;2023-11-21T00:54:44;10.50;99.90
36384;DHT22;22418;51.210;6.976;2023-11-21T00:57:15;10.50;99.90
36384;DHT22;22418;51.210;6.976;2023-11-21T00:59:45;10.50;99.90
36384;DHT22;22418;51.210;6.976;2023-11-21T01:02:16;10.30;99.90
36384;DHT22;22418;51.210;6.976;2023-11-21T01:04:46;10.30;99.90
36384;DHT22;22418;51.210;6.976;2023-11-21T01:07:18;10.30;99.90
36384;DHT22;22418;51.210;6.976;2023-11-21T01:09:50;10.40;99.90
36384;DHT22;22418;51.210;6.976;2023-11-21T01:12:21;10.50;99.90
36384;DHT22;22418;51.210;6.976;2023-11-21T01:14:51;10.50;99.90
36384;DHT22;22418;51.210;6.976;2023-11-21T01:17:22;10.50;99.90
36384;DHT22;22418;51.210;6.976;2023-11-21T01:19:53;10.40;99.90
36384;DHT22;22418;51.210;6.976;2023-11-21T01:22:23;10.50;99.90
36384;DHT22;22418;51.210;6.976;2023-11-21T01:24:56;10.40;99.90
36384;DHT22;22418;51.210;6.976;2023-11-21T01:27:26;10.50;99.90
36384;DHT22;22418;51.210;6.976;2023-11-21T01:29:57;10.50;99.90
36384;DHT22;22418;51.210;6.976;2023-11-21T01:32:27;10.50;99.90
36384;DHT22;22418;51.210;6.976;2023-11-21T01:34:59;10.50;99.90
36384;DHT22;22418;51.210;6.976;2023-11-21T01:37:30;10.50;99.90
36384;DHT22;22418;51.210;6.976;2023-11-21T01:40:00;10.50;99.90
36384;DHT22;22418;51.210;6.976;2023-11-21T01:42:32;10.50;99.90
36384;DHT22;22418;51.210;6.976;2023-11-21T01:45:04;10.40;99.90
36384;DHT22;22418;51.210;6.976;2023-11-21T01:47:35;10.50;99.90
36384;DHT22;22418;51.210;6.976;2023-11-21T01:50:07;10.40;99.90
36384;DHT22;22418;51.210;6.976;2023-11-21T01:52:38;10.50;99.90
36384;DHT22;22418;51.210;6.976;2023-11-21T01:55:10;10.40;99.90
36384;DHT22;22418;51.210;6.976;2023-11-21T01:57:42;10.50;99.90
36384;DHT22;22418;51.210;6.976;2023-11-21T02:00:13;10.50;99.90
36384;DHT22;22418;51.210;6.976;2023-11-21T02:02:48;10.50;99.90
36384;DHT22;22418;51.210;6.976;2023-11-21T02:05:19;10.60;99.90
36384;DHT22;22418;51.210;6.976;2023-11-21T02:07:52;10.60;99.90
36384;DHT22;22418;51.210;6.976;2023-11-21T02:10:23;10.50;99.90
36384;DHT22;22418;51.210;6.976;2023-11-21T02:12:54;10.60;99.90
36384;DHT22;22418;51.210;6.976;2023-11-21T02:15:26;10.50;99.90
36384;DHT22;22418;51.210;6.976;2023-11-21T02:17:59;10.50;99.90
36384;DHT22;22418;51.210;6.976;2023-11-21T02:20:31;10.50;99.90
36384;DHT22;22418;51.210;6.976;2023-11-21T02:23:04;10.50;99.90
36384;DHT22;22418;51.210;6.976;2023-11-21T02:25:35;10.50;99.90
36384;DHT22;22418;51.210;6.976;2023-11-21T02:28:07;10.50;99.90
36384;DHT22;22418;51.210;6.976;2023-11-21T02:30:37;10.40;99.90
36384;DHT22;22418;51.210;6.976;2023-11-21T02:33:08;10.40;99.90
36384;DHT22;22418;51.210;6.976;2023-11-21T02:35:39;10.50;99.90
36384;DHT22;22418;51.210;6.976;2023-11-21T02:38:09;10.50;99.90
36384;DHT22;22418;51.210;6.976;2023-11-21T02:40:40;10.40;99.90
36384;DHT22;22418;51.210;6.976;2023-11-21T02:43:10;10.40;99.90
36384;DHT22;22418;51.210;6.976;2023-11-21T02:45:41;10.40;99.90
36384;DHT22;22418;51.210;6.976;2023-11-21T02:48:12;10.50;99.90
36384;DHT22;22418;51.210;6.976;2023-11-21T02:50:42;10.40;99.90
36384;DHT22;22418;51.210;6.976;2023-11-21T02:53:13;10.60;99.90
36384;DHT22;22418;51.210;6.976;2023-11-21T02:55:44;10.50;99.90
36384;DHT22;22418;51.210;6.976;2023-11-21T02:58:14;10.60;99.90
36384;DHT22;22418;51.210;6.976;2023-11-21T03:00:45;10.50;99.90
36384;DHT22;22418;51.210;6.976;2023-11-21T03:03:15;10.50;99.90
36384;DHT22;22418;51.210;6.976;2023-11-21T03:05:46;10.60;99.90
36384;DHT22;22418;51.210;6.976;2023-11-21T03:08:16;10.50;99.90
36384;DHT22;22418;51.210;6.976;2023-11-21T03:10:47;10.50;99.90
36384;DHT22;22418;51.210;6.976;2023-11-21T03:13:17;10.60;99.90
36384;DHT22;22418;51.210;6.976;2023-11-21T03:15:48;10.50;99.90
36384;DHT22;22418;51.210;6.976;2023-11-21T03:18:19;10.60;99.90
36384;DHT22;22418;51.210;6.976;2023-11-21T03:20:49;10.60;99.90
36384;DHT22;22418;51.210;6.976;2023-11-21T03:23:20;10.50;99.90
36384;DHT22;22418;51.210;6.976;2023-11-21T03:25:50;10.60;99.90
36384;DHT22;22418;51.210;6.976;2023-11-21T03:28:21;10.50;99.90
36384;DHT22;22418;51.210;6.976;2023-11-21T03:30:51;10.60;99.90
36384;DHT22;22418;51.210;6.976;2023-11-21T03:33:22;10.40;99.90
36384;DHT22;22418;51.210;6.976;2023-11-21T03:35:53;10.60;99.90
36384;DHT22;22418;51.210;6.976;2023-11-21T03:38:23;10.60;99.90
36384;DHT22;22418;51.210;6.976;2023-11-21T03:40:54;10.60;99.90
36384;DHT22;22418;51.210;6.976;2023-11-21T03:43:24;10.50;99.90
36384;DHT22;22418;51.210;6.976;2023-11-21T03:45:55;10.50;99.90
36384;DHT22;22418;51.210;6.976;2023-11-21T03:48:25;10.50;99.90
36384;DHT22;22418;51.210;6.976;2023-11-21T03:50:56;10.50;99.90
36384;DHT22;22418;51.210;6.976;2023-11-21T03:53:27;10.50;99.90
36384;DHT22;22418;51.210;6.976;2023-11-21T03:55:57;10.40;99.90
36384;DHT22;22418;51.210;6.976;2023-11-21T03:58:28;10.50;99.90
36384;DHT22;22418;51.210;6.976;2023-11-21T04:00:59;10.60;99.90
36384;DHT22;22418;51.210;6.976;2023-11-21T04:03:29;10.40;99.90
36384;DHT22;22418;51.210;6.976;2023-11-21T04:06:00;10.50;99.90
36384;DHT22;22418;51.210;6.976;2023-11-21T04:08:31;10.40;99.90
36384;DHT22;22418;51.210;6.976;2023-11-21T04:11:04;10.30;99.90
36384;DHT22;22418;51.210;6.976;2023-11-21T04:13:34;10.30;99.90
36384;DHT22;22418;51.210;6.976;2023-11-21T04:16:09;10.40;99.90
36384;DHT22;22418;51.210;6.976;2023-11-21T04:18:39;10.40;99.90
36384;DHT22;22418;51.210;6.976;2023-11-21T04:21:10;10.30;99.90
36384;DHT22;22418;51.210;6.976;2023-11-21T04:23:41;10.30;99.90
36384;DHT22;22418;51.210;6.976;2023-11-21T04:26:12;10.40;99.90
36384;DHT22;22418;51.210;6.976;2023-11-21T04:28:42;10.40;99.90
36384;DHT22;22418;51.210;6.976;2023-11-21T04:31:13;10.50;99.90
36384;DHT22;22418;51.210;6.976;2023-11-21T04:33:44;10.40;99.90
36384;DHT22;22418;51.210;6.976;2023-11-21T04:36:15;10.40;99.90
36384;DHT22;22418;51.210;6.976;2023-11-21T04:38:45;10.40;99.90
36384;DHT22;22418;51.210;6.976;2023-11-21T04:41:16;10.40;99.90
36384;DHT22;22418;51.210;6.976;2023-11-21T04:43:46;10.40;99.90
36384;DHT22;22418;51.210;6.976;2023-11-21T04:46:17;10.40;99.90
36384;DHT22;22418;51.210;6.976;2023-11-21T04:48:48;10.50;99.90
36384;DHT22;22418;51.210;6.976;2023-11-21T04:51:18;10.50;99.90
36384;DHT22;22418;51.210;6.976;2023-11-21T04:53:49;10.50;99.90
36384;DHT22;22418;51.210;6.976;2023-11-21T04:56:19;10.50;99.90
36384;DHT22;22418;51.210;6.976;2023-11-21T04:58:50;10.50;99.90
36384;DHT22;22418;51.210;6.976;2023-11-21T05:01:21;10.50;99.90
36384;DHT22;22418;51.210;6.976;2023-11-21T05:03:51;10.40;99.90
36384;DHT22;22418;51.210;6.976;2023-11-21T05:06:22;10.50;99.90
36384;DHT22;22418;51.210;6.976;2023-11-21T05:08:54;10.50;99.90
36384;DHT22;22418;51.210;6.976;2023-11-21T05:11:28;10.50;99.90
36384;DHT22;22418;51.210;6.976;2023-11-21T05:13:59;10.60;99.90
36384;DHT22;22418;51.210;6.976;2023-11-21T05:16:31;10.40;99.90
36384;DHT22;22418;51.210;6.976;2023-11-21T05:19:02;10.40;99.90
36384;DHT22;22418;51.210;6.976;2023-11-21T05:21:34;10.40;99.90
36384;DHT22;22418;51.210;6.976;2023-11-21T05:24:06;10.40;99.90
36384;DHT22;22418;51.210;6.976;2023-11-21T05:26:37;10.40;99.90
36384;DHT22;22418;51.210;6.976;2023-11-21T05:29:09;10.40;99.90
36384;DHT22;22418;51.210;6.976;2023-11-21T05:31:41;10.50;99.90
36384;DHT22;22418;51.210;6.976;2023-11-21T05:34:11;10.40;99.90
36384;DHT22;22418;51.210;6.976;2023-11-21T05:36:45;10.50;99.90
36384;DHT22;22418;51.210;6.976;2023-11-21T05:39:16;10.40;99.90
36384;DHT22;22418;51.210;6.976;2023-11-21T05:41:47;10.40;99.90
36384;DHT22;22418;51.210;6.976;2023-11-21T05:44:18;10.40;99.90
36384;DHT22;22418;51.210;6.976;2023-11-21T05:46:48;10.30;99.90
36384;DHT22;22418;51.210;6.976;2023-11-21T05:49:19;10.40;99.90
36384;DHT22;22418;51.210;6.976;2023-11-21T05:51:53;10.30;99.90
36384;DHT22;22418;51.210;6.976;2023-11-21T05:54:24;10.30;99.90
36384;DHT22;22418;51.210;6.976;2023-11-21T05:56:54;10.20;99.90
36384;DHT22;22418;51.210;6.976;2023-11-21T05:59:25;10.10;99.90
36384;DHT22;22418;51.210;6.976;2023-11-21T06:01:55;10.20;99.90
36384;DHT22;22418;51.210;6.976;2023-11-21T06:04:26;10.20;99.90
36384;DHT22;22418;51.210;6.976;2023-11-21T06:06:57;10.20;99.90
36384;DHT22;22418;51.210;6.976;2023-11-21T06:09:27;10.20;99.90
36384;DHT22;22418;51.210;6.976;2023-11-21T06:11:58;10.20;99.90
36384;DHT22;22418;51.210;6.976;2023-11-21T06:14:29;10.20;99.90
36384;DHT22;22418;51.210;6.976;2023-11-21T06:16:59;10.10;99.90
36384;DHT22;22418;51.210;6.976;2023-11-21T06:19:30;10.00;99.90
36384;DHT22;22418;51.210;6.976;2023-11-21T06:22:00;10.00;99.90
36384;DHT22;22418;51.210;6.976;2023-11-21T06:24:32;9.80;99.90
36384;DHT22;22418;51.210;6.976;2023-11-21T06:27:04;9.90;99.90
36384;DHT22;22418;51.210;6.976;2023-11-21T06:29:35;10.00;99.90
36384;DHT22;22418;51.210;6.976;2023-11-21T06:32:06;10.00;99.90
36384;DHT22;22418;51.210;6.976;2023-11-21T06:34:36;9.90;99.90
36384;DHT22;22418;51.210;6.976;2023-11-21T06:37:07;10.00;99.90
36384;DHT22;22418;51.210;6.976;2023-11-21T06:39:37;10.00;99.90
36384;DHT22;22418;51.210;6.976;2023-11-21T06:42:08;10.10;99.90
36384;DHT22;22418;51.210;6.976;2023-11-21T06:44:39;10.10;99.90
36384;DHT22;22418;51.210;6.976;2023-11-21T06:47:09;10.20;99.90
36384;DHT22;22418;51.210;6.976;2023-11-21T06:49:42;10.20;99.90
36384;DHT22;22418;51.210;6.976;2023-11-21T06:52:13;10.20;99.90
36384;DHT22;22418;51.210;6.976;2023-11-21T06:54:44;10.20;99.90
36384;DHT22;22418;51.210;6.976;2023-11-21T06:57:15;10.20;99.90
36384;DHT22;22418;51.210;6.976;2023-11-21T06:59:46;10.20;99.90
36384;DHT22;22418;51.210;6.976;2023-11-21T07:02:16;10.10;99.90
36384;DHT22;22418;51.210;6.976;2023-11-21T07:04:48;10.10;99.90
36384;DHT22;22418;51.210;6.976;2023-11-21T07:07:19;10.10;99.90
36384;DHT22;22418;51.210;6.976;2023-11-21T07:09:49;10.10;99.90
36384;DHT22;22418;51.210;6.976;2023-11-21T07:12:22;10.10;99.90
36384;DHT22;22418;51.210;6.976;2023-11-21T07:14:54;10.30;99.90
36384;DHT22;22418;51.210;6.976;2023-11-21T07:17:24;10.20;99.90
36384;DHT22;22418;51.210;6.976;2023-11-21T07:19:55;10.30;99.90
36384;DHT22;22418;51.210;6.976;2023-11-21T07:22:25;10.40;99.90
36384;DHT22;22418;51.210;6.976;2023-11-21T07:24:56;10.30;99.90
36384;DHT22;22418;51.210;6.976;2023-11-21T07:27:29;10.30;99.90
36384;DHT22;22418;51.210;6.976;2023-11-21T07:30:00;10.40;99.90
36384;DHT22;22418;51.210;6.976;2023-11-21T07:32:31;10.50;99.90
36384;DHT22;22418;51.210;6.976;2023-11-21T07:35:02;10.50;99.90
36384;DHT22;22418;51.210;6.976;2023-11-21T07:37:32;10.50;99.90
36384;DHT22;22418;51.210;6.976;2023-11-21T07:40:03;10.60;99.90
36384;DHT22;22418;51.210;6.976;2023-11-21T07:42:34;10.60;99.90
36384;DHT22;22418;51.210;6.976;2023-11-21T07:45:05;10.60;99.90
36384;DHT22;22418;51.210;6.976;2023-11-21T07:47:37;10.70;99.90
36384;DHT22;22418;51.210;6.976;2023-11-21T07:50:09;10.70;99.90
36384;DHT22;22418;51.210;6.976;2023-11-21T07:52:40;10.70;99.90
36384;DHT22;22418;51.210;6.976;2023-11-21T07:55:11;10.80;99.90
36384;DHT22;22418;51.210;6.976;2023-11-21T07:57:42;10.60;99.90
36384;DHT22;22418;51.210;6.976;2023-11-21T08:00:13;10.70;99.90
36384;DHT22;22418;51.210;6.976;2023-11-21T08:02:45;10.80;99.90
36384;DHT22;22418;51.210;6.976;2023-11-21T08:05:16;11.00;99.90
36384;DHT22;22418;51.210;6.976;2023-11-21T08:07:46;10.80;99.90
36384;DHT22;22418;51.210;6.976;2023-11-21T08:10:17;11.00;99.90
36384;DHT22;22418;51.210;6.976;2023-11-21T08:12:48;11.10;99.90
36384;DHT22;22418;51.210;6.976;2023-11-21T08:15:19;11.00;99.90
36384;DHT22;22418;51.210;6.976;2023-11-21T08:17:50;11.00;99.90
36384;DHT22;22418;51.210;6.976;2023-11-21T08:20:20;11.00;99.90
36384;DHT22;22418;51.210;6.976;2023-11-21T08:22:53;11.10;99.90
36384;DHT22;22418;51.210;6.976;2023-11-21T08:25:23;11.20;99.90
36384;DHT22;22418;51.210;6.976;2023-11-21T08:27:54;11.20;99.90
36384;DHT22;22418;51.210;6.976;2023-11-21T08:30:24;11.30;99.90
36384;DHT22;22418;51.210;6.976;2023-11-21T08:32:55;11.40;99.90
36384;DHT22;22418;51.210;6.976;2023-11-21T08:35:28;11.30;99.90
36384;DHT22;22418;51.210;6.976;2023-11-21T08:37:59;11.40;99.90
36384;DHT22;22418;51.210;6.976;2023-11-21T08:40:29;11.40;99.90
36384;DHT22;22418;51.210;6.976;2023-11-21T08:43:00;11.30;99.90
36384;DHT22;22418;51.210;6.976;2023-11-21T08:45:31;11.30;99.90
36384;DHT22;22418;51.210;6.976;2023-11-21T08:48:04;11.40;99.90
36384;DHT22;22418;51.210;6.976;2023-11-21T08:50:35;11.40;99.90
36384;DHT22;22418;51.210;6.976;2023-11-21T08:53:06;11.50;99.90
36384;DHT22;22418;51.210;6.976;2023-11-21T08:55:36;11.50;99.90
36384;DHT22;22418;51.210;6.976;2023-11-21T08:58:07;11.50;99.90
36384;DHT22;22418;51.210;6.976;2023-11-21T09:00:39;11.50;99.90
36384;DHT22;22418;51.210;6.976;2023-11-21T09:03:10;11.50;99.90
36384;DHT22;22418;51.210;6.976;2023-11-21T09:05:41;11.40;99.90
36384;DHT22;22418;51.210;6.976;2023-11-21T09:08:12;11.40;99.90
36384;DHT22;22418;51.210;6.976;2023-11-21T09:10:42;11.50;99.90
36384;DHT22;22418;51.210;6.976;2023-11-21T09:13:15;11.40;99.90
36384;DHT22;22418;51.210;6.976;2023-11-21T09:15:47;11.40;99.90
36384;DHT22;22418;51.210;6.976;2023-11-21T09:18:17;11.50;99.90
36384;DHT22;22418;51.210;6.976;2023-11-21T09:20:48;11.50;99.90
36384;DHT22;22418;51.210;6.976;2023-11-21T09:23:18;11.60;99.90
36384;DHT22;22418;51.210;6.976;2023-11-21T09:25:49;11.50;99.90
36384;DHT22;22418;51.210;6.976;2023-11-21T09:28:20;11.50;99.90
36384;DHT22;22418;51.210;6.976;2023-11-21T09:30:51;11.50;99.90
36384;DHT22;22418;51.210;6.976;2023-11-21T09:33:21;11.60;99.90
36384;DHT22;22418;51.210;6.976;2023-11-21T09:35:55;11.60;99.90
36384;DHT22;22418;51.210;6.976;2023-11-21T09:38:25;11.60;99.90
36384;DHT22;22418;51.210;6.976;2023-11-21T09:40:56;11.60;99.90
36384;DHT22;22418;51.210;6.976;2023-11-21T09:43:30;11.70;99.90
36384;DHT22;22418;51.210;6.976;2023-11-21T09:46:01;11.70;99.90
36384;DHT22;22418;51.210;6.976;2023-11-21T09:48:34;11.70;99.90
36384;DHT22;22418;51.210;6.976;2023-11-21T09:51:08;11.70;99.90
36384;DHT22;22418;51.210;6.976;2023-11-21T09:53:42;11.70;99.90
36384;DHT22;22418;51.210;6.976;2023-11-21T09:56:14;11.70;99.90
36384;DHT22;22418;51.210;6.976;2023-11-21T09:58:53;11.70;99.90
36384;DHT22;22418;51.210;6.976;2023-11-21T10:01:24;11.80;99.90
36384;DHT22;22418;51.210;6.976;2023-11-21T10:03:55;11.80;99.90
36384;DHT22;22418;51.210;6.976;2023-11-21T10:06:27;11.80;99.90
36384;DHT22;22418;51.210;6.976;2023-11-21T10:08:59;11.90;99.90
36384;DHT22;22418;51.210;6.976;2023-11-21T10:11:30;11.90;99.90
36384;DHT22;22418;51.210;6.976;2023-11-21T10:14:02;12.00;99.90
36384;DHT22;22418;51.210;6.976;2023-11-21T10:16:34;12.00;99.90
36384;DHT22;22418;51.210;6.976;2023-11-21T10:19:05;12.10;99.90
36384;DHT22;22418;51.210;6.976;2023-11-21T10:21:38;12.10;99.90
36384;DHT22;22418;51.210;6.976;2023-11-21T10:24:09;12.20;99.90
36384;DHT22;22418;51.210;6.976;2023-11-21T10:26:40;12.10;99.90
36384;DHT22;22418;51.210;6.976;2023-11-21T10:29:14;12.10;99.90
36384;DHT22;22418;51.210;6.976;2023-11-21T10:31:49;12.10;99.90
36384;DHT22;22418;51.210;6.976;2023-11-21T10:34:21;12.00;99.90
36384;DHT22;22418;51.210;6.976;2023-11-21T10:36:52;12.10;99.90
36384;DHT22;22418;51.210;6.976;2023-11-21T10:39:22;12.20;99.90
36384;DHT22;22418;51.210;6.976;2023-11-21T10:41:55;12.10;99.90
36384;DHT22;22418;51.210;6.976;2023-11-21T10:44:26;12.10;99.90
36384;DHT22;22418;51.210;6.976;2023-11-21T10:46:56;12.10;99.90
36384;DHT22;22418;51.210;6.976;2023-11-21T10:49:27;12.10;99.90
36384;DHT22;22418;51.210;6.976;2023-11-21T10:51:59;12.20;99.90
36384;DHT22;22418;51.210;6.976;2023-11-21T10:54:29;12.20;99.90
36384;DHT22;22418;51.210;6.976;2023-11-21T10:57:00;12.20;99.90
36384;DHT22;22418;51.210;6.976;2023-11-21T10:59:32;12.20;99.90
36384;DHT22;22418;51.210;6.976;2023-11-21T11:02:23;12.30;99.90
36384;DHT22;22418;51.210;6.976;2023-11-21T11:04:56;12.20;99.90
36384;DHT22;22418;51.210;6.976;2023-11-21T11:07:27;12.20;99.90
36384;DHT22;22418;51.210;6.976;2023-11-21T11:09:58;12.20;99.90
36384;DHT22;22418;51.210;6.976;2023-11-21T11:12:29;12.20;99.90
36384;DHT22;22418;51.210;6.976;2023-11-21T11:15:01;12.30;99.90
36384;DHT22;22418;51.210;6.976;2023-11-21T11:17:31;12.40;99.90
36384;DHT22;22418;51.210;6.976;2023-11-21T11:20:04;12.30;99.90
36384;DHT22;22418;51.210;6.976;2023-11-21T11:22:56;12.30;99.90
36384;DHT22;22418;51.210;6.976;2023-11-21T11:25:52;12.40;99.90
36384;DHT22;22418;51.210;6.976;2023-11-21T11:31:53;12.20;99.90
36384;DHT22;22418;51.210;6.976;2023-11-21T11:34:45;12.20;99.90
36384;DHT22;22418;51.210;6.976;2023-11-21T11:37:17;12.20;99.90
36384;DHT22;22418;51.210;6.976;2023-11-21T11:39:49;12.30;99.90
36384;DHT22;22418;51.210;6.976;2023-11-21T11:42:19;12.30;99.90
36384;DHT22;22418;51.210;6.976;2023-11-21T11:44:53;12.30;99.90
36384;DHT22;22418;51.210;6.976;2023-11-21T11:47:27;12.20;99.90
36384;DHT22;22418;51.210;6.976;2023-11-21T11:50:05;12.30;99.90
36384;DHT22;22418;51.210;6.976;2023-11-21T11:52:45;12.20;99.90
36384;DHT22;22418;51.210;6.976;2023-11-21T11:55:17;12.30;99.90
36384;DHT22;22418;51.210;6.976;2023-11-21T11:57:53;12.30;99.90
36384;DHT22;22418;51.210;6.976;2023-11-21T12:02:58;12.40;99.90
36384;DHT22;22418;51.210;6.976;2023-11-21T12:05:38;12.40;99.90
36384;DHT22;22418;51.210;6.976;2023-11-21T12:08:16;12.40;99.90
36384;DHT22;22418;51.210;6.976;2023-11-21T12:10:47;12.30;99.90
36384;DHT22;22418;51.210;6.976;2023-11-21T12:13:19;12.30;99.90
36384;DHT22;22418;51.210;6.976;2023-11-21T12:15:49;12.40;99.90
36384;DHT22;22418;51.210;6.976;2023-11-21T12:18:21;12.40;99.90
36384;DHT22;22418;51.210;6.976;2023-11-21T12:20:51;12.50;99.90
36384;DHT22;22418;51.210;6.976;2023-11-21T12:23:22;12.60;99.90
36384;DHT22;22418;51.210;6.976;2023-11-21T12:25:53;12.50;99.90
36384;DHT22;22418;51.210;6.976;2023-11-21T12:28:23;12.70;99.90
36384;DHT22;22418;51.210;6.976;2023-11-21T12:30:54;12.50;99.90
36384;DHT22;22418;51.210;6.976;2023-11-21T12:33:25;12.60;99.90
36384;DHT22;22418;51.210;6.976;2023-11-21T12:35:56;12.60;99.90
36384;DHT22;22418;51.210;6.976;2023-11-21T12:38:34;12.70;99.90
36384;DHT22;22418;51.210;6.976;2023-11-21T12:41:06;12.70;99.90
36384;DHT22;22418;51.210;6.976;2023-11-21T12:43:39;12.70;99.90
36384;DHT22;22418;51.210;6.976;2023-11-21T12:46:10;12.70;99.90
36384;DHT22;22418;51.210;6.976;2023-11-21T12:48:41;12.60;99.90
36384;DHT22;22418;51.210;6.976;2023-11-21T12:51:13;12.60;99.90
36384;DHT22;22418;51.210;6.976;2023-11-21T12:53:46;12.60;99.90
36384;DHT22;22418;51.210;6.976;2023-11-21T12:56:17;12.70;99.90
36384;DHT22;22418;51.210;6.976;2023-11-21T12:58:48;12.60;99.90
36384;DHT22;22418;51.210;6.976;2023-11-21T13:01:19;12.60;99.90
36384;DHT22;22418;51.210;6.976;2023-11-21T13:03:52;12.70;99.90
36384;DHT22;22418;51.210;6.976;2023-11-21T13:06:22;12.80;99.90
36384;DHT22;22418;51.210;6.976;2023-11-21T13:08:55;12.70;99.90
36384;DHT22;22418;51.210;6.976;2023-11-21T13:11:30;12.70;99.90
36384;DHT22;22418;51.210;6.976;2023-11-21T13:14:04;12.70;99.90
36384;DHT22;22418;51.210;6.976;2023-11-21T13:16:34;12.70;99.90
36384;DHT22;22418;51.210;6.976;2023-11-21T13:19:05;12.70;99.90
36384;DHT22;22418;51.210;6.976;2023-11-21T13:21:35;12.70;99.90
36384;DHT22;22418;51.210;6.976;2023-11-21T13:24:06;12.70;99.90
36384;DHT22;22418;51.210;6.976;2023-11-21T13:26:37;12.60;99.90
36384;DHT22;22418;51.210;6.976;2023-11-21T13:29:07;12.60;99.90
36384;DHT22;22418;51.210;6.976;2023-11-21T13:31:38;12.60;99.90
36384;DHT22;22418;51.210;6.976;2023-11-21T13:34:09;12.70;99.90
36384;DHT22;22418;51.210;6.976;2023-11-21T13:36:41;12.70;99.90
36384;DHT22;22418;51.210;6.976;2023-11-21T13:39:12;12.70;99.90
36384;DHT22;22418;51.210;6.976;2023-11-21T13:41:45;12.70;99.90
36384;DHT22;22418;51.210;6.976;2023-11-21T13:44:18;12.70;99.90
36384;DHT22;22418;51.210;6.976;2023-11-21T13:47:05;12.60;99.90
36384;DHT22;22418;51.210;6.976;2023-11-21T13:49:36;12.70;99.90
36384;DHT22;22418;51.210;6.976;2023-11-21T13:52:11;12.70;99.90
36384;DHT22;22418;51.210;6.976;2023-11-21T13:54:48;12.70;99.90
36384;DHT22;22418;51.210;6.976;2023-11-21T13:57:18;12.70;99.90
36384;DHT22;22418;51.210;6.976;2023-11-21T13:59:50;12.60;99.90
36384;DHT22;22418;51.210;6.976;2023-11-21T14:02:21;12.60;99.90
36384;DHT22;22418;51.210;6.976;2023-11-21T14:05:02;12.60;99.90
36384;DHT22;22418;51.210;6.976;2023-11-21T14:07:39;12.50;99.90
36384;DHT22;22418;51.210;6.976;2023-11-21T14:10:18;12.30;99.90
36384;DHT22;22418;51.210;6.976;2023-11-21T14:12:52;12.20;99.90
36384;DHT22;22418;51.210;6.976;2023-11-21T14:15:22;12.00;99.90
36384;DHT22;22418;51.210;6.976;2023-11-21T14:17:53;12.00;99.90
36384;DHT22;22418;51.210;6.976;2023-11-21T14:20:25;11.90;99.90
36384;DHT22;22418;51.210;6.976;2023-11-21T14:22:55;11.90;99.90
36384;DHT22;22418;51.210;6.976;2023-11-21T14:25:26;11.90;99.90
36384;DHT22;22418;51.210;6.976;2023-11-21T14:27:57;11.80;99.90
36384;DHT22;22418;51.210;6.976;2023-11-21T14:30:27;11.60;99.90
36384;DHT22;22418;51.210;6.976;2023-11-21T14:33:00;11.70;99.90
36384;DHT22;22418;51.210;6.976;2023-11-21T14:35:31;11.70;99.90
36384;DHT22;22418;51.210;6.976;2023-11-21T14:38:02;11.60;99.90
36384;DHT22;22418;51.210;6.976;2023-11-21T14:40:35;11.60;99.90
36384;DHT22;22418;51.210;6.976;2023-11-21T14:43:06;11.40;99.90
36384;DHT22;22418;51.210;6.976;2023-11-21T14:45:37;11.40;99.90
36384;DHT22;22418;51.210;6.976;2023-11-21T14:48:07;11.50;99.90
36384;DHT22;22418;51.210;6.976;2023-11-21T14:50:56;11.40;99.90
36384;DHT22;22418;51.210;6.976;2023-11-21T14:53:32;11.50;99.90
36384;DHT22;22418;51.210;6.976;2023-11-21T14:56:23;11.40;99.90
36384;DHT22;22418;51.210;6.976;2023-11-21T14:59:01;11.40;99.90
36384;DHT22;22418;51.210;6.976;2023-11-21T15:01:50;11.40;99.90
36384;DHT22;22418;51.210;6.976;2023-11-21T15:04:25;11.40;99.90
36384;DHT22;22418;51.210;6.976;2023-11-21T15:07:06;11.30;99.90
36384;DHT22;22418;51.210;6.976;2023-11-21T15:09:37;11.30;99.90
36384;DHT22;22418;51.210;6.976;2023-11-21T15:12:12;11.30;99.90
36384;DHT22;22418;51.210;6.976;2023-11-21T15:14:48;11.20;99.90
36384;DHT22;22418;51.210;6.976;2023-11-21T15:17:22;11.20;99.90
36384;DHT22;22418;51.210;6.976;2023-11-21T15:19:56;11.10;99.90
36384;DHT22;22418;51.210;6.976;2023-11-21T15:22:27;11.10;99.90
36384;DHT22;22418;51.210;6.976;2023-11-21T15:24:58;11.10;99.90
36384;DHT22;22418;51.210;6.976;2023-11-21T15:27:30;11.20;99.90
36384;DHT22;22418;51.210;6.976;2023-11-21T15:30:01;11.10;99.90
36384;DHT22;22418;51.210;6.976;2023-11-21T15:32:31;11.20;99.90
36384;DHT22;22418;51.210;6.976;2023-11-21T15:35:02;11.20;99.90
36384;DHT22;22418;51.210;6.976;2023-11-21T15:37:33;11.10;99.90
36384;DHT22;22418;51.210;6.976;2023-11-21T15:40:07;11.00;99.90
36384;DHT22;22418;51.210;6.976;2023-11-21T15:42:39;11.00;99.90
36384;DHT22;22418;51.210;6.976;2023-11-21T15:45:10;10.80;99.90
36384;DHT22;22418;51.210;6.976;2023-11-21T15:47:40;10.90;99.90
36384;DHT22;22418;51.210;6.976;2023-11-21T15:50:11;10.90;99.90
36384;DHT22;22418;51.210;6.976;2023-11-21T15:52:41;10.90;99.90
36384;DHT22;22418;51.210;6.976;2023-11-21T15:55:14;10.90;99.90
36384;DHT22;22418;51.210;6.976;2023-11-21T15:57:44;11.00;99.90
36384;DHT22;22418;51.210;6.976;2023-11-21T16:00:16;11.00;99.90
36384;DHT22;22418;51.210;6.976;2023-11-21T16:02:50;10.80;99.90
36384;DHT22;22418;51.210;6.976;2023-11-21T16:05:20;11.00;99.90